Time;durP1;ratioP1;P1;durP2;ratioP2;P2;SDS_P1;SDS_P2;PMS_P1;PMS_P2;Temp;Humidity;BMP_temperature;BMP_pressure;BME280_temperature;BME280_humidity;BME280_pressure;Samples;Min_cycle;Max_cycle;Signal;HPM_P1;HPM_P2
2023/12/22 00:00:15;;;;;;;12.00;0.80;;;;;;;5.36;85.63;97270.88;109327;1266;22540;-75
2023/12/22 00:03:42;;;;;;;11.90;1.30;;;;;;;5.36;85.04;97274.66;109288;1268;22551;-75
2023/12/22 00:06:33;;;;;;;8.20;0.70;;;;;;;5.36;85.24;97266.55;109106;1266;22945;-74
2023/12/22 00:09:24;;;;;;;7.60;0.90;;;;;;;5.36;85.27;97271.38;109307;1260;22558;-75
2023/12/22 00:12:13;;;;;;;;;;;;;;;5.34;85.04;97274.66;108992;1266;22635;-74
2023/12/22 00:15:04;;;;;;;7.90;0.70;;;;;;;5.33;85.07;97271.36;109349;1264;24345;-75
2023/12/22 00:17:55;;;;;;;12.20;1.00;;;;;;;5.32;85.31;97270.81;109336;1264;22955;-76
2023/12/22 00:20:46;;;;;;;10.70;1.00;;;;;;;5.31;85.14;97266.44;109361;1267;22577;-75
2023/12/22 00:23:37;;;;;;;14.00;1.20;;;;;;;5.29;84.77;97261.77;109306;1260;22707;-76
2023/12/22 00:26:28;;;;;;;14.60;1.20;;;;;;;5.24;83.84;97267.96;109396;1256;23241;-76
2023/12/22 00:29:19;;;;;;;13.40;1.60;;;;;;;5.22;84.29;97269.03;109480;1266;23203;-76
2023/12/22 00:32:10;;;;;;;12.30;1.00;;;;;;;5.18;83.95;97260.45;109242;1266;25481;-76
2023/12/22 00:35:01;;;;;;;15.60;1.00;;;;;;;5.14;83.82;97267.89;109438;1266;23412;-76
2023/12/22 00:37:52;;;;;;;21.20;2.50;;;;;;;5.11;83.09;97268.20;109452;1264;23212;-76
2023/12/22 00:40:43;;;;;;;11.80;0.80;;;;;;;5.09;83.10;97274.23;109361;1260;22569;-77
2023/12/22 00:43:34;;;;;;;12.40;0.90;;;;;;;5.07;82.55;97277.89;109355;1254;22560;-78
2023/12/22 00:46:25;;;;;;;16.50;1.20;;;;;;;5.04;81.77;97279.21;109386;1260;23199;-75
2023/12/22 00:49:16;;;;;;;16.90;1.90;;;;;;;5.02;81.88;97290.88;109349;1260;22543;-77
2023/12/22 00:52:07;;;;;;;10.30;1.00;;;;;;;5.00;81.90;97288.84;109530;1260;23179;-76
2023/12/22 00:54:58;;;;;;;12.90;1.10;;;;;;;4.98;81.81;97292.58;109310;1268;22925;-75
2023/12/22 00:57:49;;;;;;;10.20;1.20;;;;;;;4.95;82.12;97290.93;109362;1268;22921;-76
2023/12/22 01:00:40;;;;;;;8.80;1.00;;;;;;;4.93;81.99;97299.98;109255;1268;23408;-78
2023/12/22 01:03:31;;;;;;;13.40;1.00;;;;;;;4.93;82.13;97290.74;109350;1263;22603;-77
2023/12/22 01:06:22;;;;;;;6.30;0.60;;;;;;;4.92;82.19;97292.09;109307;1260;22671;-76
2023/12/22 01:09:14;;;;;;;9.00;0.70;;;;;;;4.89;81.71;97290.06;109342;1267;22592;-76
2023/12/22 01:12:07;;;;;;;12.50;0.90;;;;;;;4.85;81.45;97294.85;109032;1266;23063;-75
2023/12/22 01:14:58;;;;;;;12.90;1.10;;;;;;;4.82;81.83;97300.52;109361;1264;24183;-75
2023/12/22 01:17:49;;;;;;;11.10;0.80;;;;;;;4.78;82.17;97305.81;109370;1266;22680;-76
2023/12/22 01:20:40;;;;;;;10.90;1.40;;;;;;;4.75;81.84;97308.64;109361;1263;23250;-77
2023/12/22 01:23:31;;;;;;;10.20;1.00;;;;;;;4.73;82.08;97315.08;109386;1261;23001;-75
2023/12/22 01:26:22;;;;;;;7.10;0.70;;;;;;;4.69;82.57;97316.20;109183;1260;23619;-75
2023/12/22 01:29:13;;;;;;;16.30;1.00;;;;;;;4.67;82.06;97321.64;109300;1265;23239;-76
2023/12/22 01:32:05;;;;;;;9.50;1.00;;;;;;;4.65;81.74;97314.52;109309;1267;22580;-77
2023/12/22 01:34:56;;;;;;;13.40;1.60;;;;;;;4.64;82.03;97318.27;109345;1266;23149;-77
2023/12/22 01:37:48;;;;;;;14.80;0.90;;;;;;;4.63;81.61;97315.42;109211;1263;22962;-77
2023/12/22 01:40:39;;;;;;;11.10;1.30;;;;;;;4.61;80.61;97323.23;109350;1257;22551;-77
2023/12/22 01:43:30;;;;;;;12.90;1.60;;;;;;;4.59;79.94;97308.05;109340;1267;22552;-75
2023/12/22 01:46:19;;;;;;;;;;;;;;;4.57;79.93;97305.74;109367;1261;22892;-76
2023/12/22 01:49:11;;;;;;;12.30;1.20;;;;;;;4.54;80.16;97311.24;109508;1257;23310;-79
2023/12/22 01:52:02;;;;;;;16.90;1.80;;;;;;;4.50;79.82;97306.02;109478;1266;23246;-76
2023/12/22 01:54:55;;;;;;;16.70;1.30;;;;;;;4.47;79.57;97306.30;109333;1268;22697;-76
2023/12/22 01:57:47;;;;;;;18.10;1.10;;;;;;;4.45;79.75;97309.88;109327;1268;22571;-74
2023/12/22 02:00:38;;;;;;;13.10;2.30;;;;;;;4.42;79.38;97310.64;109251;1269;23423;-76
2023/12/22 02:03:29;;;;;;;14.60;1.20;;;;;;;4.41;79.47;97305.67;109296;1265;22542;-79
2023/12/22 02:06:21;;;;;;;12.90;1.40;;;;;;;4.40;78.94;97304.02;108809;1266;25416;-74
2023/12/22 02:09:12;;;;;;;9.90;1.10;;;;;;;4.39;78.82;97299.70;108299;1266;22641;-74
2023/12/22 02:12:03;;;;;;;12.60;1.30;;;;;;;4.38;78.34;97296.24;108404;1263;22545;-74
2023/12/22 02:14:54;;;;;;;13.30;1.00;;;;;;;4.35;78.48;97292.19;108455;1263;23882;-76
2023/12/22 02:17:55;;;;;;;15.20;1.30;;;;;;;4.32;78.11;97298.98;108514;1266;22673;-74
2023/12/22 02:20:47;;;;;;;13.20;1.40;;;;;;;4.31;77.76;97305.05;108467;1266;22586;-74
2023/12/22 02:23:38;;;;;;;13.60;1.30;;;;;;;4.30;77.88;97300.14;108369;1257;22632;-74
2023/12/22 02:26:35;;;;;;;11.00;1.40;;;;;;;4.28;77.46;97296.94;108284;1267;23724;-75
2023/12/22 02:29:28;;;;;;;13.30;1.30;;;;;;;4.27;77.67;97306.52;108352;1268;22528;-75
2023/12/22 02:32:25;;;;;;;15.90;1.50;;;;;;;4.26;78.41;97311.60;108293;1266;22627;-75
2023/12/22 02:35:20;;;;;;;7.20;1.20;;;;;;;4.22;78.99;97321.35;108263;1267;22995;-74
2023/12/22 02:38:14;;;;;;;8.10;1.00;;;;;;;4.15;79.76;97327.15;108331;1266;24649;-74
2023/12/22 02:41:05;;;;;;;11.30;1.20;;;;;;;4.07;79.66;97330.17;108536;1263;24325;-74
2023/12/22 02:43:57;;;;;;;2.60;0.50;;;;;;;3.99;78.97;97321.36;108369;1266;22554;-74
2023/12/22 02:46:49;;;;;;;7.80;0.90;;;;;;;3.91;78.10;97323.64;108331;1265;23903;-74
2023/12/22 02:49:40;;;;;;;5.40;0.60;;;;;;;3.85;78.38;97329.77;108366;1268;25271;-74
2023/12/22 02:52:31;;;;;;;9.90;0.50;;;;;;;3.77;78.65;97315.73;108397;1260;22514;-74
2023/12/22 02:55:22;;;;;;;6.80;0.70;;;;;;;3.68;79.10;97344.83;108412;1260;22528;-74
2023/12/22 02:58:13;;;;;;;8.90;0.60;;;;;;;3.58;79.41;97336.25;108539;1267;22612;-75
2023/12/22 03:01:04;;;;;;;5.60;0.80;;;;;;;3.48;79.27;97343.83;108397;1256;22744;-75
2023/12/22 03:03:55;;;;;;;5.60;0.80;;;;;;;3.37;79.48;97340.16;108176;1269;23353;-75
2023/12/22 03:06:46;;;;;;;4.90;0.50;;;;;;;3.27;79.60;97332.98;108350;1257;25449;-74
2023/12/22 03:09:37;;;;;;;6.60;0.50;;;;;;;3.21;79.43;97345.66;108261;1267;25001;-74
2023/12/22 03:12:28;;;;;;;8.20;0.60;;;;;;;3.16;79.74;97345.84;108439;1265;22939;-73
2023/12/22 03:15:19;;;;;;;7.90;1.20;;;;;;;3.10;79.09;97337.17;108392;1260;24218;-74
2023/12/22 03:18:10;;;;;;;9.40;1.00;;;;;;;3.07;78.74;97337.11;108481;1266;24203;-74
2023/12/22 03:21:01;;;;;;;11.10;1.10;;;;;;;3.06;78.08;97340.11;108545;1266;22893;-74
2023/12/22 03:23:50;;;;;;;;;;;;;;;3.07;77.52;97345.59;108488;1266;25211;-75
2023/12/22 03:26:41;;;;;;;6.40;0.70;;;;;;;3.09;76.74;97351.55;108349;1267;23341;-75
2023/12/22 03:29:32;;;;;;;6.00;0.50;;;;;;;3.12;76.49;97353.20;108446;1264;22634;-74
2023/12/22 03:32:23;;;;;;;11.90;0.70;;;;;;;3.16;76.39;97352.63;108382;1267;22655;-74
2023/12/22 03:35:14;;;;;;;5.10;0.50;;;;;;;3.18;76.38;97364.59;108604;1266;22623;-73
2023/12/22 03:38:05;;;;;;;9.50;0.90;;;;;;;3.19;76.36;97369.35;108547;1267;22516;-75
2023/12/22 03:40:56;;;;;;;11.60;0.90;;;;;;;3.19;76.92;97375.77;108502;1257;22597;-75
2023/12/22 03:43:47;;;;;;;5.50;0.40;;;;;;;3.17;77.53;97384.73;108497;1266;22757;-74
2023/12/22 03:46:38;;;;;;;7.30;0.50;;;;;;;3.13;78.08;97385.79;108599;1264;22575;-74
2023/12/22 03:49:27;;;;;;;;;;;;;;;3.07;78.58;97384.77;109060;1267;22514;-76
2023/12/22 03:52:18;;;;;;;10.50;0.40;;;;;;;3.02;79.26;97391.86;109087;1260;22525;-74
2023/12/22 03:55:09;;;;;;;4.20;0.30;;;;;;;2.97;79.66;97396.27;109144;1260;24421;-75
2023/12/22 03:58:00;;;;;;;8.10;0.50;;;;;;;2.94;79.93;97400.31;108859;1268;22542;-75
2023/12/22 04:00:51;;;;;;;7.50;0.50;;;;;;;2.92;80.21;97402.15;109014;1256;24231;-74
2023/12/22 04:03:42;;;;;;;6.10;0.50;;;;;;;2.89;80.22;97400.35;108963;1268;22627;-75
2023/12/22 04:06:33;;;;;;;6.00;0.60;;;;;;;2.89;80.10;97398.89;109066;1267;22573;-76
2023/12/22 04:09:24;;;;;;;3.90;0.30;;;;;;;2.88;80.23;97393.32;109014;1263;23792;-76
2023/12/22 04:12:15;;;;;;;4.60;0.40;;;;;;;2.89;80.25;97394.03;109031;1268;22617;-75
2023/12/22 04:15:09;;;;;;;10.00;0.70;;;;;;;2.92;80.35;97394.35;109023;1260;23054;-77
2023/12/22 04:17:59;;;;;;;7.60;0.80;;;;;;;2.95;80.19;97393.75;111409;1268;22082;-75
2023/12/22 04:20:53;;;;;;;7.80;0.40;;;;;;;2.97;80.32;97388.55;111425;1265;23029;-76
2023/12/22 04:23:44;;;;;;;4.70;0.30;;;;;;;2.99;80.27;97386.61;111505;1263;22132;-74
2023/12/22 04:26:34;;;;;;;6.60;0.50;;;;;;;3.02;80.31;97388.16;111453;1267;22225;-76
2023/12/22 04:29:25;;;;;;;9.40;0.50;;;;;;;3.04;80.03;97395.23;111450;1260;22194;-76
2023/12/22 04:32:16;;;;;;;7.50;0.50;;;;;;;3.08;80.11;97385.12;111469;1265;22430;-74
2023/12/22 04:35:08;;;;;;;6.70;0.80;;;;;;;3.11;79.99;97383.42;111426;1267;22194;-75
2023/12/22 04:37:59;;;;;;;9.50;0.90;;;;;;;3.16;79.94;97379.33;111470;1266;22332;-75
2023/12/22 04:40:49;;;;;;;16.20;0.90;;;;;;;3.17;79.81;97372.66;111536;1263;22544;-74
2023/12/22 04:43:40;;;;;;;12.90;0.70;;;;;;;3.18;79.34;97368.66;111461;1267;22386;-75
2023/12/22 04:46:31;;;;;;;12.10;1.20;;;;;;;3.18;78.82;97365.20;111482;1265;22494;-76
2023/12/22 04:49:22;;;;;;;9.10;0.70;;;;;;;3.19;78.69;97365.14;111460;1260;22326;-76
2023/12/22 04:52:11;;;;;;;;;;;;;;;3.17;78.36;97372.06;111516;1260;22375;-77
2023/12/22 04:55:02;;;;;;;9.40;0.80;;;;;;;3.16;77.67;97372.82;111464;1268;22284;-76
2023/12/22 04:57:53;;;;;;;6.30;0.60;;;;;;;3.19;77.19;97367.95;111483;1260;22706;-77
2023/12/22 05:00:44;;;;;;;14.20;0.90;;;;;;;3.22;77.27;97359.70;111450;1268;22150;-75
2023/12/22 05:03:35;;;;;;;16.70;0.90;;;;;;;3.23;76.62;97361.25;111529;1267;22108;-74
2023/12/22 05:06:26;;;;;;;9.10;2.00;;;;;;;3.26;76.24;97355.78;111506;1266;23135;-76
2023/12/22 05:09:16;;;;;;;;;;;;;;;3.28;76.44;97361.00;111506;1267;22691;-75
2023/12/22 05:12:08;;;;;;;10.80;1.10;;;;;;;3.26;76.38;97364.70;111528;1265;22148;-75
2023/12/22 05:14:59;;;;;;;8.60;0.50;;;;;;;3.27;76.10;97360.55;111589;1260;22215;-75
2023/12/22 05:17:48;;;;;;;;;;;;;;;3.29;75.54;97365.96;111586;1263;22343;-74
2023/12/22 05:20:39;;;;;;;9.40;0.60;;;;;;;3.30;75.87;97361.55;111573;1263;22204;-75
2023/12/22 05:23:29;;;;;;;8.70;0.90;;;;;;;3.31;75.36;97372.03;111527;1261;22084;-74
2023/12/22 05:26:21;;;;;;;11.10;0.70;;;;;;;3.33;75.32;97365.41;111552;1267;22146;-74
2023/12/22 05:29:12;;;;;;;10.20;0.90;;;;;;;3.33;75.63;97368.67;111525;1263;23214;-75
2023/12/22 05:32:03;;;;;;;9.00;0.80;;;;;;;3.33;75.80;97368.53;111488;1266;22649;-76
2023/12/22 05:34:54;;;;;;;8.40;1.00;;;;;;;3.32;75.81;97364.96;111417;1268;22127;-74
2023/12/22 05:37:43;;;;;;;;;;;;;;;3.31;75.59;97365.16;111452;1266;22325;-76
2023/12/22 05:40:34;;;;;;;9.90;1.60;;;;;;;3.31;75.61;97364.96;111453;1266;22505;-74
2023/12/22 05:43:25;;;;;;;8.00;0.70;;;;;;;3.31;75.71;97361.76;111500;1267;22117;-75
2023/12/22 05:46:16;;;;;;;10.40;0.90;;;;;;;3.29;75.67;97355.54;111516;1267;23078;-74
2023/12/22 05:49:07;;;;;;;11.70;0.60;;;;;;;3.29;75.53;97360.90;111601;1266;22125;-76
2023/12/22 05:51:58;;;;;;;5.50;0.70;;;;;;;3.30;75.51;97363.51;111443;1268;22143;-74
2023/12/22 05:54:49;;;;;;;5.50;0.70;;;;;;;3.32;75.50;97364.12;111452;1268;22268;-75
2023/12/22 05:57:40;;;;;;;8.10;0.80;;;;;;;3.33;75.48;97368.38;111461;1268;22146;-75
2023/12/22 06:00:30;;;;;;;6.30;0.70;;;;;;;3.32;75.68;97366.63;111509;1266;23215;-78
2023/12/22 06:03:21;;;;;;;10.50;1.00;;;;;;;3.31;75.39;97368.41;111423;1267;23191;-75
2023/12/22 06:06:12;;;;;;;7.40;0.80;;;;;;;3.31;75.02;97365.11;111428;1267;22647;-75
2023/12/22 06:09:02;;;;;;;7.50;0.70;;;;;;;3.32;75.42;97368.57;111508;1266;22185;-77
2023/12/22 06:11:54;;;;;;;11.40;1.20;;;;;;;3.33;75.35;97377.30;111461;1266;22346;-75
2023/12/22 06:14:45;;;;;;;6.50;0.70;;;;;;;3.33;75.34;97368.63;111498;1266;22159;-75
2023/12/22 06:17:34;;;;;;;;;;;;;;;3.33;75.68;97373.49;111466;1261;22372;-74
2023/12/22 06:20:26;;;;;;;15.40;0.80;;;;;;;3.31;75.61;97373.54;111484;1263;23000;-76
2023/12/22 06:23:17;;;;;;;9.40;0.70;;;;;;;3.31;75.65;97371.14;111492;1268;22108;-75
2023/12/22 06:26:10;;;;;;;;;;;;;;;3.30;75.90;97377.15;111442;1268;23068;-76
2023/12/22 06:29:01;;;;;;;11.30;0.70;;;;;;;3.29;75.93;97382.91;111467;1266;22112;-74
2023/12/22 06:31:52;;;;;;;8.60;0.80;;;;;;;3.28;75.84;97388.33;111482;1267;22092;-74
2023/12/22 06:34:43;;;;;;;6.50;1.00;;;;;;;3.28;76.23;97387.72;111460;1266;22230;-75
2023/12/22 06:37:32;;;;;;;;;;;;;;;3.27;76.47;97389.42;111528;1266;22806;-76
2023/12/22 06:40:23;;;;;;;9.90;1.10;;;;;;;3.25;76.64;97386.81;111593;1266;22965;-76
2023/12/22 06:43:14;;;;;;;13.40;1.30;;;;;;;3.23;76.93;97389.21;111533;1264;23053;-74
2023/12/22 06:46:15;;;;;;;6.30;0.80;;;;;;;3.20;77.17;97383.40;111453;1269;22179;-76
2023/12/22 06:49:06;;;;;;;6.00;0.60;;;;;;;3.19;77.34;97386.50;111407;1261;22084;-75
2023/12/22 06:51:56;;;;;;;7.30;0.80;;;;;;;3.18;77.63;97387.95;111417;1269;22971;-75
2023/12/22 06:54:47;;;;;;;15.10;1.30;;;;;;;3.19;77.91;97389.36;111443;1269;22132;-74
2023/12/22 06:57:36;;;;;;;;;;;;;;;3.18;77.99;97377.73;111478;1268;22303;-74
2023/12/22 07:00:27;;;;;;;9.30;1.00;;;;;;;3.15;78.23;97385.05;111442;1266;22679;-75
2023/12/22 07:03:19;;;;;;;18.00;2.10;;;;;;;3.13;78.57;97384.69;111520;1263;22135;-73
2023/12/22 07:06:10;;;;;;;8.00;1.00;;;;;;;3.12;78.74;97393.35;111515;1266;22126;-74
2023/12/22 07:09:31;;;;;;;10.40;0.90;;;;;;;3.11;78.96;97392.59;111500;1261;22147;-75
2023/12/22 07:12:22;;;;;;;7.80;0.60;;;;;;;3.10;79.24;97395.70;111504;1267;22826;-76
2023/12/22 07:15:13;;;;;;;2.40;0.50;;;;;;;3.10;79.37;97394.00;111438;1266;22601;-74
2023/12/22 07:18:04;;;;;;;7.40;0.70;;;;;;;3.09;79.49;97395.15;111508;1266;22369;-74
2023/12/22 07:20:55;;;;;;;8.60;1.00;;;;;;;3.08;79.44;97405.52;111427;1268;22199;-74
2023/12/22 07:23:45;;;;;;;10.90;0.70;;;;;;;3.07;79.60;97422.16;111408;1269;22190;-74
2023/12/22 07:26:34;;;;;;;;;;;;;;;3.06;79.68;97416.19;111421;1266;22372;-74
2023/12/22 07:29:25;;;;;;;6.50;0.60;;;;;;;3.07;79.83;97430.66;111424;1266;22096;-74
2023/12/22 07:32:16;;;;;;;9.50;0.80;;;;;;;3.11;79.83;97437.20;111473;1266;22142;-74
2023/12/22 07:35:08;;;;;;;7.20;0.60;;;;;;;3.16;80.04;97437.91;111608;1265;22379;-75
2023/12/22 07:37:59;;;;;;;7.80;1.40;;;;;;;3.20;80.13;97434.17;111609;1266;22163;-74
2023/12/22 07:40:50;;;;;;;5.80;0.40;;;;;;;3.24;80.28;97439.04;111542;1266;22104;-74
2023/12/22 07:43:41;;;;;;;7.70;0.60;;;;;;;3.29;80.32;97436.74;111433;1268;22167;-75
2023/12/22 07:46:32;;;;;;;8.50;0.60;;;;;;;3.33;80.59;97429.59;111465;1266;22991;-76
2023/12/22 07:49:24;;;;;;;4.10;0.40;;;;;;;3.34;80.73;97430.20;111582;1260;22186;-74
2023/12/22 07:52:15;;;;;;;6.20;0.40;;;;;;;3.35;80.96;97426.64;111622;1261;22323;-75
2023/12/22 07:55:04;;;;;;;;;;;;;;;3.34;81.03;97426.44;111543;1261;22300;-76
2023/12/22 07:57:55;;;;;;;6.30;0.30;;;;;;;3.32;81.31;97425.78;111445;1269;22091;-75
2023/12/22 08:00:44;;;;;;;;;;;;;;;3.32;81.56;97419.16;111444;1269;22217;-76
2023/12/22 08:03:34;;;;;;;8.50;0.60;;;;;;;3.33;81.77;97411.50;111440;1268;22724;-75
2023/12/22 08:06:25;;;;;;;8.10;0.70;;;;;;;3.33;81.74;97406.98;111549;1264;22124;-74
2023/12/22 08:09:16;;;;;;;8.90;0.80;;;;;;;3.33;81.79;97405.98;111553;1260;22129;-74
2023/12/22 08:12:08;;;;;;;8.70;0.60;;;;;;;3.32;81.87;97414.05;111532;1266;22162;-76
2023/12/22 08:14:59;;;;;;;9.30;1.60;;;;;;;3.33;81.71;97421.48;111547;1267;22140;-74
2023/12/22 08:17:51;;;;;;;6.10;0.50;;;;;;;3.33;81.62;97426.98;111582;1266;22181;-73
2023/12/22 08:20:42;;;;;;;5.90;0.60;;;;;;;3.35;81.40;97425.84;111507;1261;22043;-74
2023/12/22 08:23:33;;;;;;;4.30;0.60;;;;;;;3.39;81.01;97433.36;111526;1268;22141;-74
2023/12/22 08:26:23;;;;;;;6.40;0.60;;;;;;;3.43;81.17;97443.40;111529;1267;22316;-75
2023/12/22 08:29:15;;;;;;;9.30;0.60;;;;;;;3.46;80.63;97441.85;111467;1267;22182;-71
2023/12/22 08:32:07;;;;;;;8.50;0.80;;;;;;;3.48;80.57;97436.79;111439;1267;22172;-72
2023/12/22 08:34:57;;;;;;;3.80;0.40;;;;;;;3.47;80.53;97435.98;111464;1264;22150;-72
2023/12/22 08:37:47;;;;;;;;;;;;;;;3.46;80.31;97443.90;111561;1261;22326;-72
2023/12/22 08:40:37;;;;;;;5.60;0.70;;;;;;;3.45;80.34;97446.86;111578;1261;22633;-72
2023/12/22 08:43:26;;;;;;;;;;;;;;;3.47;79.94;97439.84;111583;1266;22324;-71
2023/12/22 08:46:18;;;;;;;9.40;0.60;;;;;;;3.50;80.04;97439.65;111528;1261;22815;-73
2023/12/22 08:49:08;;;;;;;11.20;1.00;;;;;;;3.54;79.54;97440.87;111538;1267;22220;-73
2023/12/22 08:51:58;;;;;;;;;;;;;;;3.58;78.62;97439.77;111470;1267;22226;-71
2023/12/22 08:54:48;;;;;;;10.00;0.60;;;;;;;3.59;78.80;97438.98;111465;1268;22079;-72
2023/12/22 08:57:40;;;;;;;9.80;0.80;;;;;;;3.60;78.27;97439.21;111568;1267;22097;-72
2023/12/22 09:00:31;;;;;;;8.20;0.60;;;;;;;3.61;78.34;97440.37;111532;1267;22334;-71
2023/12/22 09:03:23;;;;;;;8.30;0.80;;;;;;;3.62;78.11;97452.21;111555;1255;22140;-72
2023/12/22 09:06:14;;;;;;;7.10;0.70;;;;;;;3.63;78.12;97451.05;111522;1267;22142;-72
2023/12/22 09:09:06;;;;;;;9.00;0.60;;;;;;;3.63;78.19;97465.31;111549;1263;22136;-71
2023/12/22 09:11:56;;;;;;;6.20;0.60;;;;;;;3.64;78.29;97461.48;111464;1263;22189;-73
2023/12/22 09:14:47;;;;;;;9.60;1.00;;;;;;;3.64;78.45;97458.08;111442;1263;22085;-72
2023/12/22 09:17:36;;;;;;;;;;;;;;;3.62;78.86;97466.65;111540;1260;22357;-71
2023/12/22 09:20:28;;;;;;;2.00;0.20;;;;;;;3.52;79.37;97461.13;111579;1267;22101;-71
2023/12/22 09:23:19;;;;;;;4.60;0.40;;;;;;;3.41;79.38;97458.04;111490;1261;22152;-72
2023/12/22 09:26:10;;;;;;;4.30;0.30;;;;;;;3.32;79.28;97470.80;111404;1267;22237;-72
2023/12/22 09:29:01;;;;;;;2.40;0.30;;;;;;;3.26;79.31;97471.78;111500;1267;23048;-72
2023/12/22 09:31:51;;;;;;;5.20;0.30;;;;;;;3.26;79.42;97475.10;111542;1264;22152;-75
2023/12/22 09:34:42;;;;;;;3.70;0.20;;;;;;;3.29;79.64;97467.18;111550;1267;22085;-73
2023/12/22 09:37:33;;;;;;;3.10;0.30;;;;;;;3.32;79.73;97457.02;111593;1264;22122;-73
2023/12/22 09:40:24;;;;;;;6.10;0.30;;;;;;;3.36;80.00;97463.09;111533;1261;23033;-74
2023/12/22 09:43:18;;;;;;;2.70;0.30;;;;;;;3.42;79.84;97470.88;111434;1260;22352;-72
2023/12/22 09:46:10;;;;;;;4.70;0.40;;;;;;;3.45;79.47;97472.55;111562;1267;22723;-73
2023/12/22 09:49:01;;;;;;;4.60;0.30;;;;;;;3.51;79.45;97454.45;111465;1257;22166;-72
2023/12/22 09:51:55;;;;;;;6.60;0.40;;;;;;;3.55;79.64;97456.31;111452;1268;23268;-72
2023/12/22 09:54:48;;;;;;;3.60;0.30;;;;;;;3.59;80.12;97455.82;111437;1268;22932;-73
2023/12/22 09:57:40;;;;;;;2.20;0.30;;;;;;;3.62;80.46;97466.86;111462;1269;22132;-72
2023/12/22 10:00:32;;;;;;;5.00;0.40;;;;;;;3.64;80.34;97465.51;111591;1267;22125;-72
2023/12/22 10:03:25;;;;;;;5.00;0.50;;;;;;;3.65;80.65;97460.94;111419;1261;22793;-72
2023/12/22 10:06:17;;;;;;;4.70;0.80;;;;;;;3.65;80.91;97460.09;111429;1260;22139;-73
2023/12/22 10:09:08;;;;;;;4.80;0.80;;;;;;;3.68;80.78;97448.21;111544;1267;22462;-72
2023/12/22 10:12:00;;;;;;;5.40;0.60;;;;;;;3.69;80.86;97460.75;111589;1260;22147;-72
2023/12/22 10:14:52;;;;;;;7.90;1.00;;;;;;;3.70;80.80;97444.30;111489;1261;22295;-72
2023/12/22 10:17:43;;;;;;;3.90;0.60;;;;;;;3.71;80.64;97455.14;111455;1267;22160;-72
2023/12/22 10:20:33;;;;;;;11.50;1.00;;;;;;;3.75;80.73;97444.86;111548;1261;22935;-73
2023/12/22 10:23:24;;;;;;;10.30;1.00;;;;;;;3.81;80.24;97452.59;111517;1266;22128;-73
2023/12/22 10:26:13;;;;;;;;;;;;;;;3.90;80.16;97460.97;111521;1264;22297;-72
2023/12/22 10:29:07;;;;;;;6.80;0.70;;;;;;;3.97;79.76;97463.79;111592;1264;22151;-71
2023/12/22 10:31:58;;;;;;;5.50;0.50;;;;;;;4.04;78.73;97470.41;111568;1261;22349;-72
2023/12/22 10:34:50;;;;;;;15.00;1.40;;;;;;;4.07;78.20;97467.27;111577;1261;22174;-72
2023/12/22 10:37:40;;;;;;;3.10;0.50;;;;;;;4.08;77.78;97472.46;111511;1267;22209;-73
2023/12/22 10:40:31;;;;;;;10.10;0.60;;;;;;;4.09;78.05;97472.61;111470;1261;22112;-72
2023/12/22 10:43:22;;;;;;;5.60;0.60;;;;;;;4.12;77.43;97473.38;111466;1260;22285;-72
2023/12/22 10:46:14;;;;;;;6.30;0.80;;;;;;;4.16;77.52;97477.38;111540;1260;23013;-72
2023/12/22 10:49:05;;;;;;;7.70;0.80;;;;;;;4.20;77.14;97483.71;111442;1257;22959;-72
2023/12/22 10:51:56;;;;;;;6.70;0.70;;;;;;;4.22;75.38;97492.55;111462;1268;22162;-72
2023/12/22 10:54:49;;;;;;;9.90;0.50;;;;;;;4.21;74.76;97486.78;111434;1268;22147;-73
2023/12/22 10:57:40;;;;;;;5.10;0.40;;;;;;;4.21;73.63;97497.52;111461;1266;22125;-73
2023/12/22 11:00:33;;;;;;;3.40;0.40;;;;;;;4.21;73.17;97504.30;111545;1261;22326;-72
2023/12/22 11:03:27;;;;;;;4.90;0.70;;;;;;;4.24;73.42;97501.89;111562;1263;22317;-72
2023/12/22 11:06:20;;;;;;;6.10;0.40;;;;;;;4.25;73.52;97511.02;111420;1260;22935;-73
2023/12/22 11:09:16;;;;;;;5.60;0.40;;;;;;;4.23;73.23;97511.33;111539;1267;23196;-73
2023/12/22 11:12:08;;;;;;;6.00;0.70;;;;;;;4.20;73.35;97518.51;111442;1266;22402;-72
2023/12/22 11:15:01;;;;;;;4.00;0.30;;;;;;;4.17;72.70;97508.52;111441;1267;23039;-72
2023/12/22 11:17:56;;;;;;;5.90;0.80;;;;;;;4.17;73.23;97509.37;111456;1260;22099;-73
2023/12/22 11:20:48;;;;;;;4.40;0.50;;;;;;;4.17;73.23;97501.43;111489;1267;22114;-73
2023/12/22 11:23:40;;;;;;;4.70;0.40;;;;;;;4.17;73.42;97503.48;111438;1261;118478;-72
2023/12/22 11:26:32;;;;;;;6.30;0.40;;;;;;;4.16;73.11;97502.89;111576;1266;22176;-72
2023/12/22 11:29:24;;;;;;;3.80;0.40;;;;;;;4.13;73.11;97511.17;111516;1266;22935;-73
2023/12/22 11:32:17;;;;;;;6.10;0.50;;;;;;;4.10;72.87;97509.45;111444;1263;22624;-73
2023/12/22 11:35:09;;;;;;;5.40;0.50;;;;;;;4.10;72.70;97516.29;111479;1267;23160;-73
2023/12/22 11:38:02;;;;;;;5.60;0.60;;;;;;;4.10;73.32;97512.92;111427;1263;22136;-72
2023/12/22 11:40:55;;;;;;;5.60;0.40;;;;;;;4.14;73.26;97514.23;111428;1266;22112;-73
2023/12/22 11:43:48;;;;;;;6.80;0.50;;;;;;;4.18;73.29;97509.83;111507;1266;22171;-74
2023/12/22 11:46:38;;;;;;;5.60;0.50;;;;;;;4.22;73.50;97510.98;111528;1261;22357;-74
2023/12/22 11:49:35;;;;;;;6.40;0.70;;;;;;;4.25;72.96;97510.42;111433;1260;23115;-73
2023/12/22 11:52:29;;;;;;;3.50;0.50;;;;;;;4.27;72.93;97505.20;111494;1260;22320;-74
2023/12/22 11:55:58;;;;;;;7.90;0.60;;;;;;;4.32;72.31;97503.79;111375;1267;22127;-72
2023/12/22 11:58:53;;;;;;;8.00;0.70;;;;;;;4.35;72.08;97493.94;111487;1254;22289;-72
2023/12/22 12:01:44;;;;;;;7.30;1.00;;;;;;;4.36;71.77;97497.57;111491;1260;22177;-73
2023/12/22 12:04:35;;;;;;;7.00;0.80;;;;;;;4.36;71.71;97489.38;111444;1264;22320;-74
2023/12/22 12:07:44;;;;;;;8.30;0.90;;;;;;;4.39;70.29;97489.42;111433;1260;22292;-74
2023/12/22 12:10:55;;;;;;;4.00;0.60;;;;;;;4.40;70.39;97481.84;111510;1260;22363;-73
2023/12/22 12:13:47;;;;;;;8.20;0.40;;;;;;;4.44;69.83;97489.63;111483;1263;22771;-74
2023/12/22 12:16:41;;;;;;;6.60;0.60;;;;;;;4.46;68.38;97474.56;111563;1261;22242;-74
2023/12/22 12:19:34;;;;;;;8.70;0.60;;;;;;;4.50;68.49;97479.17;111449;1260;22184;-74
2023/12/22 12:22:26;;;;;;;6.20;0.80;;;;;;;4.53;68.49;97485.79;111520;1266;22936;-74
2023/12/22 12:25:17;;;;;;;8.90;0.70;;;;;;;4.56;68.37;97490.56;111502;1267;22288;-74
2023/12/22 12:28:09;;;;;;;4.90;0.50;;;;;;;4.56;67.18;97494.69;111556;1267;22617;-74
2023/12/22 12:31:06;;;;;;;5.60;0.50;;;;;;;4.54;67.91;97494.69;111298;1268;22165;-74
2023/12/22 12:33:57;;;;;;;5.20;0.40;;;;;;;4.53;67.54;97495.19;111432;1256;22802;-75
2023/12/22 12:36:48;;;;;;;8.70;0.60;;;;;;;4.53;67.68;97496.09;111475;1261;22156;-74
2023/12/22 12:39:43;;;;;;;7.90;0.50;;;;;;;4.52;67.31;97499.60;111401;1268;22142;-74
2023/12/22 12:42:36;;;;;;;4.50;0.30;;;;;;;4.52;66.91;97501.63;111564;1267;22113;-74
2023/12/22 12:45:27;;;;;;;5.00;0.50;;;;;;;4.51;67.05;97499.05;111446;1264;22105;-74
2023/12/22 12:48:22;;;;;;;3.10;0.40;;;;;;;4.49;65.98;97499.26;111568;1260;22189;-73
2023/12/22 12:51:13;;;;;;;5.00;0.40;;;;;;;4.48;66.23;97500.07;111471;1260;22973;-76
2023/12/22 12:54:03;;;;;;;5.90;0.50;;;;;;;4.48;66.31;97499.61;111515;1261;22279;-75
2023/12/22 12:56:54;;;;;;;5.30;0.50;;;;;;;4.47;65.68;97500.08;111486;1260;22092;-75
2023/12/22 12:59:48;;;;;;;6.30;0.60;;;;;;;4.50;66.35;97498.77;111228;1261;22659;-74
2023/12/22 13:02:40;;;;;;;4.20;0.50;;;;;;;4.52;65.66;97497.30;111374;1260;22314;-74
2023/12/22 13:05:31;;;;;;;6.60;0.60;;;;;;;4.54;65.34;97498.00;111473;1264;22173;-74
2023/12/22 13:08:22;;;;;;;8.70;0.50;;;;;;;4.57;66.42;97503.52;111449;1263;22113;-74
2023/12/22 13:11:13;;;;;;;8.60;0.70;;;;;;;4.60;65.66;97507.94;111508;1266;22178;-75
2023/12/22 13:14:02;;;;;;;;;;;;;;;4.62;65.20;97509.09;111595;1260;22391;-74
2023/12/22 13:16:55;;;;;;;7.80;0.60;;;;;;;4.60;64.96;97510.86;111467;1267;22256;-76
2023/12/22 13:19:47;;;;;;;3.30;0.30;;;;;;;4.60;65.37;97508.09;111460;1260;23089;-74
2023/12/22 13:22:38;;;;;;;8.20;0.70;;;;;;;4.61;64.95;97512.31;111445;1261;22285;-74
2023/12/22 13:25:38;;;;;;;7.30;0.80;;;;;;;4.61;64.65;97513.17;111472;1263;22872;-74
2023/12/22 13:28:29;;;;;;;7.70;0.70;;;;;;;4.60;64.53;97520.74;111451;1257;23012;-73
2023/12/22 13:31:20;;;;;;;8.60;1.10;;;;;;;4.60;64.27;97514.17;111507;1261;22257;-74